Time;durP1;ratioP1;P1;durP2;ratioP2;P2;SDS_P1;SDS_P2;PMS_P1;PMS_P2;Temp;Humidity;BMP_temperature;BMP_pressure;BME280_temperature;BME280_humidity;BME280_pressure;Samples;Min_cycle;Max_cycle;Signal;HPM_P1;HPM_P2
2022/06/21 03:48:26;;;;;;;2.33;2.03;;;;;;;13.12;78.28;98502.94;5140402;27;103689;-74
2022/06/21 03:51:00;;;;;;;2.35;2.00;;;;;;;13.36;77.67;98508.81;5118843;27;103727;-76
2022/06/21 03:53:33;;;;;;;1.92;1.83;;;;;;;13.66;77.24;98505.28;5111138;27;103183;-76
2022/06/21 03:56:11;;;;;;;2.97;1.80;;;;;;;13.88;75.88;98510.38;5107252;27;103309;-78
2022/06/21 03:58:50;;;;;;;2.00;1.67;;;;;;;14.09;74.91;98504.97;5098914;27;102842;-78
2022/06/21 04:01:24;;;;;;;2.38;2.00;;;;;;;14.03;73.80;98509.03;5122865;27;102749;-76
2022/06/21 04:03:58;;;;;;;2.20;2.00;;;;;;;14.16;74.48;98504.28;5098956;27;103154;-75
2022/06/21 04:06:35;;;;;;;2.03;1.70;;;;;;;14.32;74.53;98491.31;5097905;27;104549;-74
2022/06/21 04:09:08;;;;;;;1.30;1.20;;;;;;;14.99;72.17;98498.38;5094379;27;103270;-76
2022/06/21 04:11:41;;;;;;;2.63;2.00;;;;;;;14.75;72.28;98490.88;5116191;27;102899;-75
2022/06/21 04:14:18;;;;;;;2.67;1.73;;;;;;;14.67;73.17;98487.25;5106339;27;103182;-75
2022/06/21 04:16:57;;;;;;;1.30;1.20;;;;;;;15.16;71.72;98479.03;5123036;27;103189;-74
2022/06/21 04:19:34;;;;;;;2.08;1.77;;;;;;;15.18;69.83;98474.41;5118875;27;102592;-74
2022/06/21 04:22:08;;;;;;;2.43;1.77;;;;;;;15.08;70.84;98487.75;5114084;27;103695;-74
2022/06/21 04:24:42;;;;;;;3.10;2.10;;;;;;;15.24;69.21;98491.63;5117164;27;103893;-74
2022/06/21 04:27:16;;;;;;;3.10;2.00;;;;;;;15.05;69.17;98488.03;5115818;27;103093;-73
2022/06/21 04:29:51;;;;;;;2.45;1.80;;;;;;;15.45;68.80;98502.88;5120781;27;102930;-74
2022/06/21 04:32:27;;;;;;;2.47;1.90;;;;;;;15.87;67.18;98503.28;5117923;27;102807;-74
2022/06/21 04:35:03;;;;;;;1.88;1.70;;;;;;;16.07;68.17;98494.19;5114489;27;103901;-74
2022/06/21 04:37:39;;;;;;;3.27;1.90;;;;;;;15.65;67.31;98492.06;5094884;27;103260;-73
2022/06/21 04:40:15;;;;;;;3.33;1.63;;;;;;;16.20;67.56;98490.16;5114452;27;102666;-74
2022/06/21 04:42:47;;;;;;;1.70;1.20;;;;;;;16.74;65.72;98480.38;5119138;27;102694;-73
2022/06/21 04:45:22;;;;;;;3.47;1.90;;;;;;;16.10;67.17;98475.25;5107809;27;103207;-75
2022/06/21 04:47:59;;;;;;;2.05;1.85;;;;;;;16.32;67.33;98480.13;5099464;27;102940;-74
2022/06/21 04:50:33;;;;;;;2.25;1.67;;;;;;;16.72;64.74;98479.69;5096436;27;102625;-73
2022/06/21 04:53:06;;;;;;;2.72;1.90;;;;;;;16.48;64.58;98474.09;5114528;27;103938;-74
2022/06/21 04:55:44;;;;;;;2.75;1.98;;;;;;;16.97;62.92;98472.69;5118838;27;103646;-74
2022/06/21 04:58:12;;;;;;;2.45;1.83;;;;;;;17.01;62.07;98471.41;5112726;27;103632;-74
2022/06/21 05:00:40;;;;;;;2.80;2.10;;;;;;;16.89;62.43;98469.97;5081572;27;103133;-74
2022/06/21 05:03:16;;;;;;;1.60;1.50;;;;;;;17.17;61.84;98463.50;5099126;27;102791;-77
2022/06/21 05:05:48;;;;;;;3.23;2.17;;;;;;;16.20;65.54;98466.19;5081454;27;104213;-73
2022/06/21 05:08:20;;;;;;;3.23;2.20;;;;;;;16.12;65.00;98478.59;5100320;27;103401;-73
2022/06/21 05:10:54;;;;;;;3.17;2.20;;;;;;;16.17;65.76;98481.63;5079040;27;102965;-72
2022/06/21 05:13:29;;;;;;;1.90;1.63;;;;;;;16.78;64.92;98477.25;5099825;27;102601;-72
2022/06/21 05:16:00;;;;;;;2.55;2.10;;;;;;;16.59;64.83;98482.75;5107928;27;103270;-74
2022/06/21 05:18:36;;;;;;;2.50;1.98;;;;;;;16.70;65.00;98479.81;5094741;27;103184;-73
2022/06/21 05:21:09;;;;;;;2.65;1.90;;;;;;;16.76;63.53;98483.72;5093862;27;102483;-73
2022/06/21 05:23:37;;;;;;;2.55;1.60;;;;;;;17.44;60.97;98487.34;5100592;27;103169;-73
2022/06/21 05:26:19;;;;;;;3.03;2.03;;;;;;;17.23;61.46;98484.22;5086802;27;103194;-73
2022/06/21 05:28:53;;;;;;;2.83;1.50;;;;;;;17.25;61.75;98476.88;5084149;27;103487;-73
2022/06/21 05:31:24;;;;;;;2.78;2.00;;;;;;;17.54;60.18;98469.41;5083846;27;103010;-73
2022/06/21 05:33:56;;;;;;;3.08;1.73;;;;;;;17.26;61.52;98471.38;5101094;27;102819;-73
2022/06/21 05:36:36;;;;;;;4.60;2.10;;;;;;;17.07;62.21;98465.41;5080238;27;103196;-76
2022/06/21 05:39:09;;;;;;;3.43;1.90;;;;;;;16.83;63.86;98478.59;5095533;27;103257;-73
2022/06/21 05:41:41;;;;;;;4.22;2.00;;;;;;;17.30;62.06;98477.25;5110186;27;102475;-73
2022/06/21 05:44:13;;;;;;;2.75;1.80;;;;;;;17.81;61.18;98465.66;5098781;27;103044;-81
2022/06/21 05:46:46;;;;;;;2.42;1.80;;;;;;;18.43;58.77;98466.97;5086930;27;103225;-75
2022/06/21 05:49:21;;;;;;;3.57;2.10;;;;;;;18.22;59.97;98471.94;5100332;27;103149;-75
2022/06/21 05:51:51;;;;;;;3.17;1.77;;;;;;;18.87;57.95;98465.69;5080923;27;102620;-75
2022/06/21 05:54:24;;;;;;;4.03;1.60;;;;;;;19.00;55.88;98466.00;5099803;27;103801;-75
2022/06/21 05:56:52;;;;;;;4.30;1.95;;;;;;;18.62;57.51;98461.34;5083772;27;103370;-74
2022/06/21 05:59:23;;;;;;;2.55;1.50;;;;;;;19.21;57.65;98472.66;5107786;27;102935;-74
2022/06/21 06:01:55;;;;;;;3.10;1.80;;;;;;;18.82;56.00;98483.25;5099543;27;102603;-74
2022/06/21 06:04:29;;;;;;;2.17;1.83;;;;;;;18.79;55.85;98495.13;5083842;27;104258;-74
2022/06/21 06:07:00;;;;;;;4.07;1.92;;;;;;;18.74;54.11;98494.78;5092633;27;103100;-74
2022/06/21 06:09:34;;;;;;;2.90;1.60;;;;;;;19.11;55.19;98492.41;5077160;27;102937;-75
2022/06/21 06:12:05;;;;;;;2.70;1.60;;;;;;;18.91;54.01;98477.72;5080440;27;103149;-74
2022/06/21 06:14:40;;;;;;;2.60;1.90;;;;;;;19.19;53.43;98480.03;5081396;27;104324;-74
2022/06/21 06:17:23;;;;;;;3.50;1.80;;;;;;;19.30;52.88;98482.34;5102438;27;103533;-75
2022/06/21 06:19:57;;;;;;;2.13;1.58;;;;;;;19.64;51.81;98486.47;5097614;27;103882;-73
2022/06/21 06:22:33;;;;;;;3.60;1.80;;;;;;;19.65;52.04;98492.66;5099299;27;102750;-74
2022/06/21 06:25:13;;;;;;;3.10;1.40;;;;;;;19.98;53.29;98486.16;5085112;27;102909;-75
2022/06/21 06:27:48;;;;;;;4.03;2.03;;;;;;;19.93;50.97;98490.38;5101165;27;103465;-75
2022/06/21 06:30:21;;;;;;;1.60;1.47;;;;;;;20.13;51.16;98491.59;5093515;27;103190;-75
2022/06/21 06:32:56;;;;;;;3.03;1.80;;;;;;;19.94;51.36;98487.50;5096514;27;104083;-74
2022/06/21 06:35:26;;;;;;;4.47;1.90;;;;;;;19.65;51.71;98487.28;5075622;27;104441;-75
2022/06/21 06:37:55;;;;;;;2.00;1.50;;;;;;;20.31;51.51;98494.06;5101334;27;103195;-74
2022/06/21 06:40:28;;;;;;;3.65;1.60;;;;;;;20.46;50.80;98490.44;5102689;27;103198;-74
2022/06/21 06:43:01;;;;;;;3.25;1.67;;;;;;;20.15;50.51;98490.41;5079541;27;102744;-74
2022/06/21 06:45:33;;;;;;;2.53;1.80;;;;;;;19.48;51.50;98478.47;5078972;27;102556;-76
2022/06/21 06:48:04;;;;;;;3.05;1.80;;;;;;;19.64;52.52;98486.47;5082957;27;104137;-76
2022/06/21 06:50:38;;;;;;;2.13;1.52;;;;;;;20.01;50.94;98487.66;5101016;27;103194;-77
2022/06/21 06:53:14;;;;;;;2.00;1.80;;;;;;;20.54;49.81;98484.19;5103827;27;103662;-75
2022/06/21 06:55:45;;;;;;;2.83;1.90;;;;;;;20.81;50.23;98464.84;5101804;27;103583;-76
2022/06/21 06:58:34;;;;;;;1.83;1.40;;;;;;;20.75;50.09;98460.19;5092847;27;103213;-76
2022/06/21 07:01:06;;;;;;;3.03;1.60;;;;;;;20.75;48.76;98460.19;5103129;27;103414;-76
2022/06/21 07:03:43;;;;;;;2.20;1.40;;;;;;;20.52;49.65;98470.13;5100139;27;102805;-76
2022/06/21 07:06:17;;;;;;;2.65;1.65;;;;;;;21.29;48.68;98464.41;5099862;27;103689;-75
2022/06/21 07:08:53;;;;;;;2.90;1.77;;;;;;;21.38;47.85;98466.00;5081395;27;104059;-78
2022/06/21 07:11:27;;;;;;;5.13;1.77;;;;;;;21.28;48.33;98468.09;5094937;27;103102;-76
2022/06/21 07:13:58;;;;;;;1.77;1.48;;;;;;;21.74;47.67;98473.31;5098321;27;102558;-77
2022/06/21 07:16:29;;;;;;;2.90;1.70;;;;;;;21.89;46.66;98479.53;5104322;27;103045;-76
2022/06/21 07:19:03;;;;;;;4.50;1.50;;;;;;;21.82;46.70;98481.25;5085127;27;103204;-76
2022/06/21 07:21:31;;;;;;;4.22;1.70;;;;;;;21.60;47.49;98488.41;5082284;27;103309;-77
2022/06/21 07:24:01;;;;;;;5.88;1.88;;;;;;;21.29;46.93;98480.53;5100426;27;102969;-76
2022/06/21 07:26:33;;;;;;;2.90;1.47;;;;;;;21.61;47.60;98500.00;5104390;27;104096;-77
2022/06/21 07:29:09;;;;;;;3.55;1.88;;;;;;;22.20;45.68;98512.41;5100796;27;103676;-77
2022/06/21 07:31:43;;;;;;;3.20;1.80;;;;;;;22.11;45.17;98508.16;5093955;27;103139;-75
2022/06/21 07:34:15;;;;;;;2.65;1.70;;;;;;;21.42;46.47;98503.25;5080662;27;103700;-75
2022/06/21 07:36:49;;;;;;;2.95;1.52;;;;;;;22.05;45.25;98503.53;5101468;27;102797;-75
2022/06/21 07:39:23;;;;;;;2.53;1.70;;;;;;;21.83;45.89;98505.28;5101622;27;103283;-76
2022/06/21 07:41:56;;;;;;;2.03;1.40;;;;;;;22.17;45.25;98506.56;5096332;27;103179;-75
2022/06/21 07:44:30;;;;;;;5.18;1.77;;;;;;;21.44;45.77;98495.81;5098046;27;102576;-77
2022/06/21 07:47:04;;;;;;;2.08;1.55;;;;;;;22.05;47.17;98490.06;5096584;27;103720;-77
2022/06/21 07:49:38;;;;;;;3.63;1.83;;;;;;;22.22;45.68;98485.31;5104518;27;103165;-76
2022/06/21 07:52:12;;;;;;;3.37;1.77;;;;;;;22.57;44.78;98476.38;5100552;27;103141;-77
2022/06/21 07:54:55;;;;;;;3.00;1.80;;;;;;;22.38;45.49;98464.38;5084210;27;103189;-76
2022/06/21 07:57:31;;;;;;;3.25;1.70;;;;;;;23.20;43.63;98456.66;5093859;27;103579;-77
2022/06/21 08:00:02;;;;;;;3.23;1.77;;;;;;;23.15;44.57;98448.34;5096075;27;103293;-76
2022/06/21 08:08:17;;;;;;;3.90;1.65;;;;;;;23.76;42.43;98435.03;5100375;27;102898;-76
2022/06/21 08:10:52;;;;;;;2.35;1.50;;;;;;;23.48;43.84;98421.63;5081620;27;103247;-76
2022/06/21 08:13:27;;;;;;;2.40;1.50;;;;;;;24.37;42.41;98415.13;5093574;27;103309;-76
2022/06/21 08:16:01;;;;;;;3.97;1.50;;;;;;;25.21;41.16;98410.78;5075912;27;103650;-77
2022/06/21 08:18:37;;;;;;;2.47;1.60;;;;;;;25.32;40.55;98417.41;5099473;27;102867;-74
2022/06/21 08:21:12;;;;;;;3.23;1.73;;;;;;;25.16;40.70;98413.31;5096927;27;103223;-77
2022/06/21 08:23:49;;;;;;;2.97;1.80;;;;;;;24.83;41.90;98414.38;5100846;27;103277;-77
2022/06/21 08:26:22;;;;;;;2.47;1.63;;;;;;;25.70;40.60;98404.88;5099078;27;103288;-75
2022/06/21 08:28:56;;;;;;;3.88;1.70;;;;;;;24.59;42.78;98399.59;5095606;27;103188;-77
2022/06/21 08:31:30;;;;;;;2.33;1.50;;;;;;;24.26;42.01;98399.53;5101797;27;103187;-76
2022/06/21 08:34:02;;;;;;;2.75;1.65;;;;;;;24.05;43.00;98413.16;5106484;27;103159;-75
2022/06/21 08:36:32;;;;;;;2.45;1.50;;;;;;;24.43;43.39;98410.75;5081801;27;102691;-75
2022/06/21 08:39:05;;;;;;;2.65;1.80;;;;;;;24.40;43.80;98422.81;5101284;27;102928;-74
2022/06/21 08:42:02;;;;;;;1.73;1.50;;;;;;;24.59;42.85;98427.41;5095478;27;103274;-75
2022/06/21 08:48:39;;;;;;;3.17;1.60;;;;;;;23.89;43.76;98429.72;5107007;27;102640;-75
2022/06/21 08:51:33;;;;;;;3.63;1.60;;;;;;;24.48;43.28;98435.28;5078249;27;102980;-75
2022/06/21 08:54:08;;;;;;;2.40;1.80;;;;;;;24.14;43.88;98441.66;5081507;27;103395;-75
2022/06/21 08:56:42;;;;;;;3.60;1.80;;;;;;;24.58;43.84;98441.13;5100826;27;103567;-77
2022/06/21 08:59:21;;;;;;;2.42;1.63;;;;;;;24.95;43.07;98431.63;5100084;27;103170;-77
2022/06/21 09:02:00;;;;;;;3.58;1.95;;;;;;;24.82;42.58;98404.59;5100943;27;102541;-74
2022/06/21 09:04:39;;;;;;;4.68;1.95;;;;;;;23.73;44.23;98406.59;5100913;27;103528;-76
2022/06/21 09:07:50;;;;;;;2.60;1.63;;;;;;;23.88;45.23;98390.25;5100693;27;103191;-76
2022/06/21 09:10:32;;;;;;;3.57;1.77;;;;;;;24.46;43.11;98395.00;5022667;28;102936;-77
2022/06/21 09:13:17;;;;;;;3.55;1.77;;;;;;;24.71;43.88;98403.31;5096325;27;103095;-74
2022/06/21 09:15:59;;;;;;;2.50;1.90;;;;;;;25.43;42.95;98414.09;5106499;27;103913;-73
2022/06/21 09:18:39;;;;;;;5.18;1.80;;;;;;;26.43;43.02;98399.94;5077708;27;103821;-74
2022/06/21 09:21:16;;;;;;;2.55;1.67;;;;;;;25.47;43.34;98404.53;5103006;27;102696;-73
2022/06/21 09:24:00;;;;;;;3.27;1.80;;;;;;;25.75;42.13;98396.94;5085756;27;103978;-74
2022/06/21 09:26:45;;;;;;;2.80;1.80;;;;;;;25.84;41.50;98402.94;5099192;27;103335;-74
2022/06/21 09:29:31;;;;;;;2.10;1.67;;;;;;;25.51;41.99;98394.97;5082569;27;103185;-74
2022/06/21 09:32:12;;;;;;;4.38;1.75;;;;;;;25.08;42.51;98401.88;5087692;27;103178;-74
2022/06/21 09:34:53;;;;;;;3.17;1.95;;;;;;;25.41;42.97;98399.09;5103550;27;102589;-76
2022/06/21 09:37:31;;;;;;;3.67;2.13;;;;;;;25.25;44.33;98406.63;5098141;27;103527;-73
2022/06/21 09:40:09;;;;;;;2.47;1.80;;;;;;;26.79;42.86;98405.53;5101234;27;103132;-75
2022/06/21 09:43:08;;;;;;;3.10;1.77;;;;;;;26.83;40.40;98412.19;5104208;27;102971;-75
2022/06/21 09:45:44;;;;;;;2.85;1.88;;;;;;;26.65;41.75;98403.09;5099382;27;103775;-75
2022/06/21 09:48:22;;;;;;;2.58;1.65;;;;;;;27.75;41.72;98405.84;5098507;27;104206;-75
2022/06/21 09:50:58;;;;;;;2.80;1.97;;;;;;;27.11;40.65;98397.34;5098030;27;103931;-75
2022/06/21 09:53:42;;;;;;;3.17;2.08;;;;;;;27.61;40.98;98398.91;5098411;27;102831;-75
2022/06/21 09:56:23;;;;;;;3.22;1.85;;;;;;;27.98;39.99;98394.28;5093096;27;102600;-75
2022/06/21 09:59:00;;;;;;;2.87;1.80;;;;;;;28.33;39.67;98392.56;5084474;27;103177;-75
2022/06/21 10:01:37;;;;;;;3.97;1.90;;;;;;;28.23;39.76;98392.28;5103986;27;103164;-75
2022/06/21 10:04:23;;;;;;;3.45;1.83;;;;;;;28.15;41.38;98390.72;5098758;27;102493;-75
2022/06/21 10:07:02;;;;;;;2.63;2.00;;;;;;;27.98;39.05;98386.13;5085688;27;102651;-75
2022/06/21 10:09:47;;;;;;;3.50;2.10;;;;;;;26.69;41.68;98382.66;5105207;27;103306;-74
2022/06/21 10:12:26;;;;;;;2.20;1.98;;;;;;;27.86;40.01;98372.50;5098128;27;103301;-75
2022/06/21 10:15:22;;;;;;;2.75;2.00;;;;;;;28.13;39.76;98381.97;5100481;27;102594;-75
2022/06/21 10:18:24;;;;;;;2.78;1.98;;;;;;;28.13;40.55;98375.72;5072721;27;104281;-75
2022/06/21 10:21:07;;;;;;;2.40;1.90;;;;;;;28.89;38.97;98364.09;5080880;27;104443;-77
2022/06/21 10:23:57;;;;;;;2.72;1.80;;;;;;;29.33;39.00;98358.91;5097595;27;103120;-75
2022/06/21 10:27:00;;;;;;;4.20;2.38;;;;;;;28.69;39.98;98361.72;5104400;27;102553;-75
2022/06/21 10:30:07;;;;;;;3.20;1.90;;;;;;;28.60;39.22;98354.97;5082979;27;102659;-74
2022/06/21 10:32:55;;;;;;;3.20;2.10;;;;;;;29.19;39.25;98352.03;5017168;27;104808;-76
2022/06/21 10:36:01;;;;;;;3.05;2.20;;;;;;;29.03;39.91;98338.31;5077261;27;103300;-76
2022/06/21 10:38:49;;;;;;;5.07;2.60;;;;;;;29.05;39.68;98331.63;5100956;27;102794;-74
2022/06/21 10:41:32;;;;;;;4.03;2.23;;;;;;;29.35;39.27;98327.94;5102980;27;102734;-76
2022/06/21 10:44:33;;;;;;;2.85;1.98;;;;;;;29.63;39.30;98328.81;5098384;27;103583;-76
2022/06/21 10:47:04;;;;;;;4.60;2.03;;;;;;;29.67;40.03;98318.28;5070392;27;103134;-74
2022/06/21 10:49:49;;;;;;;4.75;2.33;;;;;;;29.53;37.88;98316.91;5101380;27;102880;-76
2022/06/21 10:52:38;;;;;;;3.22;2.20;;;;;;;29.35;39.15;98308.88;5101234;27;102575;-75
2022/06/21 10:55:33;;;;;;;2.40;2.20;;;;;;;29.24;40.84;98305.97;5079763;27;104499;-76
2022/06/21 10:58:14;;;;;;;4.18;2.40;;;;;;;29.31;39.99;98294.94;5087874;27;104066;-76
2022/06/21 11:01:19;;;;;;;3.28;2.33;;;;;;;28.99;40.44;98289.06;5091216;27;103018;-76
2022/06/21 11:04:29;;;;;;;2.40;1.90;;;;;;;29.50;40.34;98284.72;5094210;27;103025;-77
2022/06/21 11:07:04;;;;;;;4.90;2.40;;;;;;;29.66;39.39;98283.94;5081918;27;104163;-76
2022/06/21 11:09:47;;;;;;;3.40;2.40;;;;;;;29.52;38.67;98280.69;5081473;27;103657;-76
2022/06/21 11:15:21;;;;;;;2.88;2.33;;;;;;;29.11;39.29;98292.56;5099175;27;103965;-76
2022/06/21 11:17:59;;;;;;;4.18;2.47;;;;;;;29.77;40.46;98292.06;5092474;27;104347;-77
2022/06/21 11:20:33;;;;;;;3.88;2.50;;;;;;;29.57;39.62;98285.41;5096248;27;103414;-77
2022/06/21 11:23:15;;;;;;;2.60;2.40;;;;;;;30.08;39.12;98281.75;5097003;27;102725;-75
2022/06/21 11:25:52;;;;;;;3.95;2.20;;;;;;;30.78;39.51;98282.13;5081765;27;102683;-76
2022/06/21 11:28:36;;;;;;;2.58;2.38;;;;;;;30.63;38.84;98269.09;5102612;27;103213;-76
2022/06/21 11:31:15;;;;;;;2.38;2.17;;;;;;;30.26;39.12;98273.38;5083729;27;103023;-76
2022/06/21 11:33:53;;;;;;;2.40;2.20;;;;;;;29.66;40.09;98267.63;5095877;27;102912;-77
2022/06/21 11:36:31;;;;;;;2.40;2.20;;;;;;;30.21;38.59;98260.47;5078637;27;102904;-76
2022/06/21 11:39:15;;;;;;;4.65;2.60;;;;;;;29.80;39.12;98253.50;5096080;27;103169;-78
2022/06/21 11:42:08;;;;;;;2.60;2.40;;;;;;;29.90;40.21;98252.84;5076583;27;103121;-76
2022/06/21 11:45:07;;;;;;;3.65;2.65;;;;;;;28.17;41.62;98241.97;5094631;27;102676;-77
2022/06/21 11:47:50;;;;;;;4.30;2.70;;;;;;;28.96;41.15;98246.03;5072669;27;104404;-76
2022/06/21 11:50:20;;;;;;;4.15;2.70;;;;;;;27.30;42.86;98244.44;5095086;27;103206;-76
2022/06/21 11:53:27;;;;;;;4.53;2.70;;;;;;;28.52;43.16;98241.19;5078478;27;103367;-76
2022/06/21 11:56:04;;;;;;;4.88;2.88;;;;;;;28.36;42.96;98239.16;5088701;27;103108;-76
2022/06/21 11:58:39;;;;;;;3.77;2.40;;;;;;;28.59;42.60;98222.88;5086509;27;103126;-77
2022/06/21 12:01:14;;;;;;;4.80;2.77;;;;;;;26.71;44.49;98212.59;5090459;27;103219;-77
2022/06/21 12:04:00;;;;;;;3.07;2.60;;;;;;;28.63;43.28;98199.63;5098295;27;103259;-76
2022/06/21 12:06:35;;;;;;;3.20;2.90;;;;;;;27.88;44.20;98220.25;5082594;27;102674;-76
2022/06/21 12:09:14;;;;;;;3.27;2.83;;;;;;;27.86;43.99;98223.22;5084894;27;102843;-75
2022/06/21 12:11:57;;;;;;;3.15;2.67;;;;;;;28.17;43.49;98228.41;5101474;27;102898;-75
2022/06/21 12:14:40;;;;;;;6.38;2.42;;;;;;;29.17;41.66;98229.06;5081870;27;103853;-81
2022/06/21 12:17:18;;;;;;;4.45;2.72;;;;;;;29.33;42.79;98222.88;5090102;27;103045;-76
2022/06/21 12:19:49;;;;;;;3.97;2.40;;;;;;;29.56;41.80;98223.91;5104023;27;103603;-78
2022/06/21 12:22:24;;;;;;;5.13;2.88;;;;;;;27.32;44.68;98217.91;5103780;27;103516;-78
2022/06/21 12:24:53;;;;;;;4.88;2.92;;;;;;;27.36;45.17;98227.25;5099713;27;102929;-79
2022/06/21 12:27:21;;;;;;;3.70;2.58;;;;;;;28.17;43.06;98209.41;5082926;27;102674;-79
2022/06/21 12:29:56;;;;;;;3.47;2.80;;;;;;;27.00;46.09;98199.13;5083036;27;102665;-78
2022/06/21 12:32:26;;;;;;;3.17;2.60;;;;;;;28.12;44.99;98194.88;5103848;27;103274;-77
2022/06/21 12:35:01;;;;;;;5.97;2.90;;;;;;;29.15;43.56;98189.56;5106269;27;103278;-71
2022/06/21 12:37:37;;;;;;;4.00;3.20;;;;;;;29.64;41.61;98177.22;5104575;27;102776;-74
2022/06/21 12:40:17;;;;;;;5.28;3.17;;;;;;;30.03;42.33;98181.75;5108402;27;102785;-73
2022/06/21 12:42:59;;;;;;;5.17;3.00;;;;;;;30.61;40.91;98191.38;5100926;27;103546;-75
2022/06/21 12:45:49;;;;;;;3.53;2.70;;;;;;;30.26;42.84;98192.47;5101303;27;103608;-75
2022/06/21 12:48:36;;;;;;;4.43;3.20;;;;;;;30.60;41.77;98193.28;5102552;27;103018;-78
2022/06/21 12:51:11;;;;;;;3.93;2.80;;;;;;;31.06;40.21;98169.38;5102513;27;102959;-73
2022/06/21 12:54:25;;;;;;;3.20;2.90;;;;;;;31.34;40.67;98139.13;5074665;27;103219;-78
2022/06/21 12:57:11;;;;;;;5.13;3.40;;;;;;;29.81;40.89;98131.84;5007770;28;103144;-74
2022/06/21 12:59:57;;;;;;;4.28;3.25;;;;;;;28.93;43.47;98110.56;5091296;27;103711;-85
2022/06/21 13:02:46;;;;;;;4.45;3.47;;;;;;;29.80;42.08;98101.06;5104494;27;103426;-81
2022/06/21 13:05:32;;;;;;;3.40;2.97;;;;;;;29.15;43.34;98097.13;5099441;27;104020;-84
2022/06/21 13:08:37;;;;;;;4.20;3.20;;;;;;;29.85;42.28;98119.34;5084151;27;103374;-86
2022/06/21 13:11:24;;;;;;;3.07;2.73;;;;;;;30.85;41.84;98141.81;5108103;27;102599;-80
2022/06/21 13:14:15;;;;;;;6.13;3.20;;;;;;;30.91;41.37;98145.44;5088823;27;104177;-87
2022/06/21 13:16:55;;;;;;;4.47;3.03;;;;;;;31.05;41.04;98140.47;5097212;27;103214;-86
2022/06/21 13:19:40;;;;;;;3.38;3.00;;;;;;;31.47;40.14;98138.75;5103244;27;102940;-78
2022/06/21 13:22:22;;;;;;;3.75;3.45;;;;;;;30.21;42.46;98140.63;5102103;27;102705;-78
2022/06/21 13:25:05;;;;;;;3.70;3.28;;;;;;;29.75;43.78;98133.63;5100338;27;102713;-77
2022/06/21 13:27:51;;;;;;;4.40;3.40;;;;;;;30.89;42.01;98106.69;5075762;27;103162;-82
2022/06/21 13:30:32;;;;;;;4.25;3.22;;;;;;;30.59;41.65;98109.88;5096801;27;103362;-80
2022/06/21 13:33:11;;;;;;;5.38;3.47;;;;;;;29.88;42.96;98097.09;5101101;27;102640;-80
2022/06/21 13:35:52;;;;;;;3.47;3.10;;;;;;;31.04;41.39;98101.44;5102426;27;104455;-79
2022/06/21 13:38:26;;;;;;;5.07;3.60;;;;;;;31.20;41.92;98114.16;5102579;27;103211;-79
2022/06/21 13:41:03;;;;;;;4.10;3.70;;;;;;;31.22;40.36;98125.63;5080914;27;104139;-77
2022/06/21 13:43:36;;;;;;;3.75;3.20;;;;;;;30.93;41.40;98133.22;5097932;27;102930;-78
2022/06/21 13:46:20;;;;;;;5.22;3.50;;;;;;;31.13;40.99;98134.56;5080941;27;102862;-79
2022/06/21 13:48:53;;;;;;;5.15;3.70;;;;;;;30.76;41.12;98120.72;5093971;27;103829;-79
2022/06/21 13:51:32;;;;;;;3.72;3.10;;;;;;;30.92;41.13;98119.81;5096070;27;103137;-78
2022/06/21 13:54:14;;;;;;;3.92;3.53;;;;;;;31.30;40.60;98106.06;5080403;27;102625;-80
2022/06/21 13:56:47;;;;;;;5.55;3.72;;;;;;;31.38;40.17;98094.69;5087414;27;103816;-79
2022/06/21 13:59:22;;;;;;;5.50;3.60;;;;;;;31.50;40.38;98087.22;5100261;27;102962;-77
2022/06/21 14:01:56;;;;;;;4.10;3.25;;;;;;;31.40;40.60;98089.00;5098988;27;102541;-78
2022/06/21 14:04:36;;;;;;;4.60;3.42;;;;;;;31.26;40.51;98106.84;5092048;27;102815;-78
2022/06/21 14:07:13;;;;;;;3.90;3.20;;;;;;;30.49;43.00;98104.28;5074816;27;102816;-78
2022/06/21 14:09:52;;;;;;;4.10;3.23;;;;;;;31.17;40.35;98103.75;5078531;27;103984;-78
2022/06/21 14:12:26;;;;;;;5.78;3.63;;;;;;;30.28;42.88;98097.72;5094840;27;103278;-80
2022/06/21 14:15:01;;;;;;;4.75;3.92;;;;;;;29.70;43.73;98100.03;5096765;27;102924;-78
2022/06/21 14:17:34;;;;;;;4.80;3.53;;;;;;;30.65;42.48;98094.41;5100077;27;102942;-79
2022/06/21 14:20:09;;;;;;;4.45;3.30;;;;;;;30.87;41.82;98084.31;5080444;27;103174;-74
2022/06/21 14:22:46;;;;;;;3.50;3.20;;;;;;;30.32;42.53;98090.66;5077188;27;103218;-75
2022/06/21 14:25:24;;;;;;;5.53;3.65;;;;;;;29.42;43.41;98091.94;5107750;27;102933;-78
2022/06/21 14:27:59;;;;;;;5.65;3.83;;;;;;;28.99;44.95;98092.47;5108647;27;103841;-75
2022/06/21 14:30:34;;;;;;;4.60;3.90;;;;;;;27.96;47.36;98093.19;5081577;27;103356;-76
2022/06/21 14:33:24;;;;;;;4.43;4.00;;;;;;;28.03;46.22;98077.66;5099980;27;103124;-74
2022/06/21 14:36:01;;;;;;;6.43;3.53;;;;;;;29.55;44.15;98067.13;5099099;27;102970;-76
2022/06/21 14:38:40;;;;;;;6.18;3.80;;;;;;;28.58;46.14;98052.75;5102651;27;102557;-80
2022/06/21 14:41:14;;;;;;;7.97;4.10;;;;;;;28.92;45.23;98056.44;5083708;27;104212;-75
2022/06/21 14:43:50;;;;;;;5.93;3.95;;;;;;;28.81;45.79;98047.25;5104969;27;103153;-75
2022/06/21 14:46:26;;;;;;;8.52;4.07;;;;;;;28.37;46.54;98045.25;5080216;27;103215;-75
2022/06/21 14:48:59;;;;;;;4.40;3.88;;;;;;;28.42;46.68;98046.19;5086323;27;102702;-76
2022/06/21 14:51:36;;;;;;;5.07;4.00;;;;;;;29.26;45.40;98034.53;5093587;27;103191;-77
2022/06/21 14:54:23;;;;;;;4.50;3.80;;;;;;;28.81;45.19;98036.38;5084318;27;103136;-74
2022/06/21 14:57:19;;;;;;;4.50;3.90;;;;;;;29.57;44.51;98030.44;5085401;27;102815;-75
2022/06/21 15:00:03;;;;;;;5.13;4.00;;;;;;;29.11;44.70;98039.66;5101122;27;103843;-77
2022/06/21 15:02:43;;;;;;;4.78;4.30;;;;;;;29.11;44.58;98042.38;5080606;27;104384;-74
2022/06/21 15:05:28;;;;;;;5.27;3.90;;;;;;;29.54;44.94;98040.97;5097166;27;103098;-75
2022/06/21 15:08:04;;;;;;;7.05;4.60;;;;;;;29.70;44.89;98021.91;5093727;27;103854;-73
2022/06/21 15:10:37;;;;;;;5.57;4.20;;;;;;;29.56;43.64;98036.13;5096655;27;103805;-75
2022/06/21 15:13:12;;;;;;;3.42;3.13;;;;;;;29.84;44.14;98019.69;5102045;27;103312;-75
2022/06/21 15:15:43;;;;;;;4.40;3.97;;;;;;;29.64;43.82;98027.56;5092216;27;103358;-74
2022/06/21 15:18:19;;;;;;;5.18;3.90;;;;;;;28.95;46.57;98026.88;5096706;27;103803;-74
2022/06/21 15:21:07;;;;;;;5.95;4.38;;;;;;;29.62;44.89;98032.41;5094630;27;103201;-75
2022/06/21 15:23:42;;;;;;;5.25;4.05;;;;;;;29.59;44.84;98027.44;5101351;27;103328;-74
2022/06/21 15:26:20;;;;;;;4.18;3.60;;;;;;;30.09;43.99;98022.78;5101443;27;103368;-74
2022/06/21 15:28:52;;;;;;;5.00;3.72;;;;;;;29.96;43.45;98027.75;5079835;27;103646;-74
2022/06/21 15:31:40;;;;;;;5.57;3.97;;;;;;;30.00;44.84;98023.47;5098255;27;102529;-74
2022/06/21 15:34:19;;;;;;;4.40;3.60;;;;;;;30.32;42.99;98017.09;5081371;27;104383;-75
2022/06/21 15:36:53;;;;;;;3.88;3.58;;;;;;;30.52;43.35;98015.72;5079826;27;103514;-75
2022/06/21 15:39:33;;;;;;;5.93;3.80;;;;;;;30.20;43.94;98019.16;5085332;27;102920;-75
2022/06/21 15:42:09;;;;;;;3.83;3.40;;;;;;;30.46;43.22;98017.56;5099615;27;103153;-75
2022/06/21 15:44:49;;;;;;;5.53;4.63;;;;;;;29.81;44.78;98025.66;5096404;27;103209;-75
2022/06/21 15:50:23;;;;;;;5.20;4.17;;;;;;;29.27;45.63;98019.88;5093776;27;102897;-77
2022/06/21 15:53:03;;;;;;;4.25;3.85;;;;;;;29.87;44.30;98014.59;5099404;27;103334;-75
2022/06/21 15:55:41;;;;;;;4.75;4.30;;;;;;;29.79;44.87;98012.25;5079447;27;103147;-74
2022/06/21 15:58:28;;;;;;;6.10;4.00;;;;;;;29.14;45.63;98003.81;5096203;27;103860;-75
2022/06/21 16:01:07;;;;;;;4.47;4.07;;;;;;;28.92;46.84;97993.91;5103074;27;102931;-75
2022/06/21 16:03:42;;;;;;;5.82;4.13;;;;;;;28.90;47.00;97986.00;5085832;27;104082;-75
2022/06/21 16:06:18;;;;;;;4.90;4.40;;;;;;;28.39;46.79;97994.22;5093485;27;103237;-75
2022/06/21 16:08:52;;;;;;;4.45;3.72;;;;;;;29.71;45.67;97990.91;5103363;27;103173;-75
2022/06/21 16:11:24;;;;;;;5.05;4.50;;;;;;;29.06;46.66;97979.75;5093558;27;102565;-74
2022/06/21 16:13:58;;;;;;;4.90;4.38;;;;;;;28.60;46.72;97982.69;5110004;27;104566;-74
2022/06/21 16:16:39;;;;;;;6.40;4.15;;;;;;;29.01;46.99;97982.41;5086944;27;103428;-73
2022/06/21 16:19:09;;;;;;;5.57;4.07;;;;;;;29.22;47.00;97981.69;5097829;27;103096;-74